Time;durP1;ratioP1;P1;durP2;ratioP2;P2;SDS_P1;SDS_P2;PMS_P1;PMS_P2;Temp;Humidity;BMP_temperature;BMP_pressure;BME280_temperature;BME280_humidity;BME280_pressure;Samples;Min_cycle;Max_cycle;Signal;HPM_P1;HPM_P2
2021/10/21 00:00:08;;;;;;;8.80;6.53;;;14.20;69.90;;;13.26;55.91;94100.28;5053085;28;20294;-80
2021/10/21 00:02:39;;;;;;;8.00;6.63;;;13.90;70.00;;;13.17;56.09;94097.19;5036279;28;20219;-80
2021/10/21 00:05:08;;;;;;;7.03;5.97;;;13.90;70.10;;;13.09;56.20;94095.66;5051635;28;20196;-79
2021/10/21 00:07:35;;;;;;;6.45;5.80;;;13.70;70.20;;;13.00;56.39;94096.22;5035860;28;20221;-78
2021/10/21 00:10:03;;;;;;;8.43;6.90;;;13.70;70.50;;;12.95;56.42;94084.56;5035450;28;20253;-80
2021/10/21 00:12:31;;;;;;;8.05;6.45;;;13.60;70.70;;;12.92;56.55;94092.91;5035509;28;20306;-79
2021/10/21 00:14:59;;;;;;;6.90;6.20;;;13.60;70.80;;;12.87;56.57;94087.53;5018799;28;20349;-79
2021/10/21 00:17:28;;;;;;;7.32;6.35;;;13.40;70.80;;;12.86;56.89;94083.28;5060980;28;20212;-80
2021/10/21 00:19:57;;;;;;;8.60;6.40;;;13.40;71.00;;;12.84;56.87;94084.53;5027753;28;20309;-79
2021/10/21 00:22:25;;;;;;;6.95;5.70;;;13.40;71.20;;;12.81;57.27;94078.69;5052171;28;20215;-80
2021/10/21 00:24:52;;;;;;;7.00;5.45;;;13.30;71.30;;;12.79;56.93;94080.75;5048535;28;20227;-79
2021/10/21 00:27:19;;;;;;;5.68;4.20;;;13.20;71.30;;;12.79;57.22;94074.69;5019356;28;20220;-80
2021/10/21 00:29:47;;;;;;;4.85;4.10;;;13.20;71.30;;;12.72;57.16;94061.66;5035102;28;20226;-79
2021/10/21 00:32:14;;;;;;;8.55;4.40;;;13.20;71.20;;;12.71;56.53;94067.13;5019059;28;20219;-79
2021/10/21 00:34:42;;;;;;;5.15;4.65;;;13.20;71.10;;;12.68;56.72;94070.22;5031063;28;20212;-79
2021/10/21 00:37:10;;;;;;;6.05;5.18;;;13.30;71.20;;;12.64;56.88;94062.75;5065891;28;20219;-79
2021/10/21 00:39:37;;;;;;;6.85;5.25;;;13.20;71.30;;;12.59;56.92;94061.84;5068030;28;20210;-80
2021/10/21 00:42:04;;;;;;;6.88;5.53;;;13.10;71.30;;;12.56;57.13;94060.47;5051442;28;20211;-79
2021/10/21 00:44:33;;;;;;;6.70;5.30;;;13.00;71.30;;;12.51;57.29;94051.63;5051016;28;20604;-79
2021/10/21 00:47:01;;;;;;;5.22;4.43;;;13.00;71.30;;;12.47;57.34;94052.09;5034228;28;20266;-80
2021/10/21 00:49:28;;;;;;;4.90;3.97;;;13.00;71.40;;;12.42;57.49;94040.66;5051286;28;20234;-79
2021/10/21 00:51:55;;;;;;;5.75;3.83;;;12.90;71.40;;;12.38;57.55;94037.66;5049590;28;20577;-78
2021/10/21 00:54:23;;;;;;;4.75;4.10;;;13.00;71.80;;;12.37;57.89;94025.53;5034430;28;20278;-79
2021/10/21 00:56:52;;;;;;;6.13;4.00;;;12.80;71.80;;;12.36;57.87;94031.81;5034901;28;20218;-78
2021/10/21 00:59:20;;;;;;;6.65;4.90;;;12.80;72.00;;;12.32;57.71;94022.78;5018760;28;20245;-79
2021/10/21 01:01:49;;;;;;;6.40;4.47;;;12.80;72.00;;;12.30;57.64;94012.50;5032542;28;20218;-80
2021/10/21 01:04:16;;;;;;;6.22;4.72;;;12.80;72.00;;;12.26;57.74;94006.06;5051181;28;20198;-80
2021/10/21 01:06:43;;;;;;;5.35;4.65;;;12.70;71.90;;;12.27;57.69;94017.41;5050788;28;20302;-78
2021/10/21 01:09:11;;;;;;;7.22;6.05;;;12.70;72.10;;;12.20;57.84;93998.28;5034414;28;20591;-80
2021/10/21 01:11:42;;;;;;;8.15;6.32;;;12.70;72.20;;;12.23;58.17;94000.44;5030904;28;20238;-79
2021/10/21 01:14:10;;;;;;;7.65;6.65;;;12.70;72.90;;;12.23;58.20;94003.91;5022356;28;20238;-79
2021/10/21 01:16:39;;;;;;;8.48;6.38;;;12.60;72.50;;;12.23;58.12;94009.16;5051227;28;20222;-79
2021/10/21 01:19:23;;;;;;;7.05;6.20;;;12.60;72.60;;;12.21;58.63;93992.00;5034501;28;20208;-80
2021/10/21 01:21:53;;;;;;;8.32;5.90;;;12.60;73.50;;;12.22;58.26;93989.16;5034209;28;20302;-79
2021/10/21 01:24:21;;;;;;;9.18;5.80;;;12.70;72.80;;;12.19;58.28;93976.44;5050161;28;20214;-79
2021/10/21 01:26:51;;;;;;;7.75;6.00;;;12.70;72.60;;;12.17;58.08;93984.56;5034102;28;20577;-79
2021/10/21 01:29:22;;;;;;;6.65;5.90;;;12.60;72.50;;;12.13;58.08;93980.78;5034364;28;20231;-79
2021/10/21 01:31:52;;;;;;;6.88;5.72;;;12.60;72.20;;;12.09;58.00;93976.97;5051074;28;20261;-79
2021/10/21 01:34:19;;;;;;;8.07;6.38;;;12.60;72.30;;;12.03;57.85;93967.38;5018812;28;20200;-79
2021/10/21 01:36:54;;;;;;;6.38;5.25;;;12.60;72.00;;;11.92;57.80;93949.72;5030901;28;20651;-79
2021/10/21 01:39:26;;;;;;;7.25;5.43;;;12.50;72.80;;;11.92;58.24;93949.72;5064334;28;20215;-79
2021/10/21 01:41:54;;;;;;;6.65;5.72;;;12.50;72.20;;;11.89;58.16;93950.16;5034160;28;20226;-79
2021/10/21 01:44:22;;;;;;;8.35;7.22;;;12.40;72.30;;;11.85;58.30;93936.66;5033771;28;20199;-79
2021/10/21 01:46:49;;;;;;;8.07;7.05;;;12.40;72.40;;;11.81;58.57;93925.78;5050580;28;20216;-79
2021/10/21 01:49:16;;;;;;;8.68;7.03;;;12.40;72.50;;;11.78;58.92;93922.81;5034060;28;20306;-78
2021/10/21 01:51:44;;;;;;;8.57;7.10;;;12.40;72.70;;;11.77;58.72;93924.66;5050447;28;20214;-78
2021/10/21 01:54:11;;;;;;;7.13;6.00;;;12.30;72.70;;;11.74;58.88;93919.81;5034301;28;20203;-79
2021/10/21 01:56:38;;;;;;;8.23;6.43;;;12.20;72.70;;;11.71;58.78;93907.16;5030192;28;20212;-79
2021/10/21 01:59:05;;;;;;;8.30;6.40;;;12.30;72.80;;;11.69;58.66;93904.75;5048072;28;20251;-79
2021/10/21 02:01:32;;;;;;;7.10;6.38;;;12.20;72.70;;;11.66;58.83;93907.03;5035081;28;20578;-78
2021/10/21 02:04:01;;;;;;;7.85;6.30;;;12.20;72.70;;;11.63;58.66;93905.66;5050941;28;20192;-78
2021/10/21 02:06:28;;;;;;;7.22;5.90;;;12.10;72.80;;;11.61;58.72;93904.25;5067556;28;20278;-79
2021/10/21 02:08:55;;;;;;;7.63;6.22;;;12.10;72.70;;;11.56;58.57;93896.25;5067021;28;20208;-79
2021/10/21 02:11:23;;;;;;;7.15;6.45;;;12.10;73.60;;;11.52;58.61;93888.00;5067666;28;20232;-79
2021/10/21 02:13:50;;;;;;;10.20;7.35;;;12.00;72.70;;;11.49;59.28;93881.38;5052430;28;20284;-78
2021/10/21 02:16:17;;;;;;;10.68;7.85;;;12.00;72.80;;;11.43;58.77;93857.84;5054124;28;20223;-79
2021/10/21 02:18:44;;;;;;;8.20;7.10;;;12.00;72.90;;;11.43;58.84;93861.25;5037349;28;20203;-78
2021/10/21 02:21:11;;;;;;;13.60;9.48;;;12.00;73.00;;;11.38;59.12;93845.38;5037971;28;20230;-79
2021/10/21 02:23:38;;;;;;;9.35;8.00;;;11.90;73.00;;;11.38;59.03;93842.75;5066695;28;20299;-79
2021/10/21 02:26:06;;;;;;;10.82;9.10;;;12.00;73.20;;;11.38;59.22;93837.50;5034190;28;20230;-79
2021/10/21 02:28:33;;;;;;;11.55;9.57;;;11.90;73.20;;;11.37;59.28;93834.06;5043993;28;20200;-78
2021/10/21 02:31:00;;;;;;;12.57;10.07;;;11.90;73.20;;;11.33;59.31;93834.75;5030551;28;20224;-78
2021/10/21 02:33:27;;;;;;;10.88;9.38;;;11.80;73.20;;;11.32;59.12;93833.16;5032834;28;20665;-78
2021/10/21 02:35:55;;;;;;;11.07;9.07;;;11.80;73.10;;;11.29;59.20;93830.97;5053339;28;20653;-79
2021/10/21 02:38:22;;;;;;;10.73;8.60;;;11.80;73.00;;;11.25;59.25;93820.09;5059148;28;20280;-79
2021/10/21 02:40:49;;;;;;;11.70;9.65;;;11.90;73.10;;;11.20;59.07;93812.91;5020128;28;20291;-78
2021/10/21 02:43:16;;;;;;;10.80;9.13;;;11.70;72.90;;;11.16;58.71;93811.75;5053371;28;20658;-78
2021/10/21 02:45:44;;;;;;;11.88;9.50;;;11.70;72.90;;;11.11;58.74;93806.38;5052441;28;20290;-79
2021/10/21 02:48:11;;;;;;;10.98;9.05;;;11.70;72.90;;;11.04;58.91;93808.28;5019954;28;20228;-78
2021/10/21 02:50:38;;;;;;;11.75;9.48;;;11.60;72.90;;;11.02;58.93;93811.13;5035805;28;20773;-79
2021/10/21 02:53:05;;;;;;;14.48;10.18;;;11.70;73.10;;;10.99;59.33;93808.94;5034510;28;20279;-78
2021/10/21 02:55:32;;;;;;;11.65;10.05;;;11.60;73.00;;;10.96;59.09;93805.94;5051548;28;20690;-79
2021/10/21 02:58:00;;;;;;;12.43;10.75;;;11.50;73.00;;;10.90;58.82;93805.03;5050442;28;20224;-80
2021/10/21 03:00:27;;;;;;;14.30;11.55;;;11.50;73.10;;;10.87;59.47;93789.72;5059467;28;20196;-78
2021/10/21 03:02:54;;;;;;;14.93;11.90;;;11.50;73.20;;;10.84;59.31;93796.22;5050865;28;20219;-79
2021/10/21 03:05:21;;;;;;;14.93;12.25;;;11.50;73.30;;;10.84;59.58;93790.97;5016366;28;20295;-79
2021/10/21 03:07:48;;;;;;;13.40;11.85;;;11.40;73.40;;;10.84;59.20;93787.53;5042743;28;20402;-78
2021/10/21 03:10:16;;;;;;;15.88;12.50;;;11.40;73.60;;;10.84;59.83;93793.59;5016825;28;20219;-79
2021/10/21 03:12:44;;;;;;;16.27;12.77;;;11.40;74.50;;;10.84;59.76;93792.78;5051001;28;20738;-79
2021/10/21 03:15:26;;;;;;;14.63;11.95;;;11.30;73.80;;;10.83;60.04;93781.50;5061142;28;20246;-79
2021/10/21 03:17:58;;;;;;;13.23;11.43;;;11.30;73.80;;;10.83;59.79;93778.88;5061168;28;20200;-78
2021/10/21 03:20:25;;;;;;;15.52;11.15;;;11.40;73.90;;;10.83;59.78;93785.94;5033592;28;20627;-79
2021/10/21 03:22:53;;;;;;;13.77;10.98;;;11.30;73.80;;;10.81;59.69;93782.75;5034783;28;20677;-78
2021/10/21 03:25:20;;;;;;;13.23;10.95;;;11.30;73.60;;;10.77;59.63;93771.88;5035792;28;20230;-79
2021/10/21 03:27:49;;;;;;;12.88;10.45;;;11.30;73.60;;;10.73;59.60;93765.50;5019256;28;20475;-78
2021/10/21 03:30:18;;;;;;;14.20;10.57;;;11.30;73.50;;;10.69;59.64;93765.13;5051526;28;20216;-80
2021/10/21 03:32:45;;;;;;;11.38;9.63;;;11.20;73.40;;;10.66;59.66;93764.78;5034072;28;20300;-78
2021/10/21 03:35:13;;;;;;;13.73;10.93;;;11.20;73.30;;;10.58;59.48;93750.13;5032906;28;20239;-80
2021/10/21 03:37:40;;;;;;;14.77;11.15;;;11.20;73.40;;;10.55;59.59;93759.22;5034894;28;20713;-78
2021/10/21 03:40:10;;;;;;;14.50;12.07;;;11.10;73.30;;;10.49;59.96;93749.63;5032697;28;20243;-78
2021/10/21 03:42:37;;;;;;;16.52;11.82;;;11.10;73.60;;;10.48;59.68;93755.09;5051348;28;20579;-78
2021/10/21 03:45:06;;;;;;;15.38;11.07;;;11.10;73.40;;;10.45;59.82;93750.28;5050173;28;20418;-79
2021/10/21 03:47:33;;;;;;;17.42;12.10;;;11.00;73.50;;;10.36;59.81;93729.63;5030560;28;20220;-79
2021/10/21 03:50:01;;;;;;;15.77;12.13;;;11.00;73.40;;;10.38;59.75;93718.91;5030012;28;20212;-79
2021/10/21 03:52:28;;;;;;;17.92;12.80;;;10.90;73.30;;;10.35;59.73;93712.25;5029305;28;20658;-79
2021/10/21 03:54:56;;;;;;;17.95;13.27;;;10.90;73.40;;;10.29;59.57;93701.84;5048983;28;20287;-80
2021/10/21 03:57:23;;;;;;;17.55;13.73;;;10.90;73.50;;;10.30;59.93;93698.22;5048465;28;20277;-79
2021/10/21 03:59:50;;;;;;;18.80;14.73;;;10.80;73.30;;;10.27;59.65;93706.53;5048830;28;20249;-79
2021/10/21 04:02:17;;;;;;;18.95;14.48;;;10.90;73.40;;;10.22;59.76;93704.56;5032720;28;20449;-79
2021/10/21 04:04:45;;;;;;;20.08;15.05;;;10.80;73.40;;;10.17;59.77;93691.31;5032740;28;20191;-80
2021/10/21 04:07:12;;;;;;;22.00;14.60;;;10.70;73.40;;;10.18;60.02;93692.91;5033553;28;20296;-79
2021/10/21 04:09:40;;;;;;;19.38;15.35;;;10.70;73.40;;;10.16;59.99;93690.50;5049551;28;20306;-80
2021/10/21 04:12:07;;;;;;;23.70;15.52;;;10.70;73.50;;;10.18;59.73;93688.47;5066670;28;20211;-79
2021/10/21 04:14:34;;;;;;;32.58;15.57;;;10.70;73.60;;;10.20;59.92;93678.56;5050103;28;20307;-79
2021/10/21 04:17:01;;;;;;;26.83;15.45;;;10.70;73.80;;;10.20;60.26;93683.78;5033320;28;20223;-79
2021/10/21 04:19:28;;;;;;;48.08;15.80;;;10.70;73.90;;;10.21;60.05;93684.59;5035159;28;20620;-80
2021/10/21 04:21:55;;;;;;;42.20;15.25;;;10.70;73.90;;;10.19;59.98;93663.06;5067985;28;20216;-79
2021/10/21 04:24:22;;;;;;;27.95;15.38;;;10.70;73.90;;;10.17;59.89;93654.63;5035398;28;20206;-79
2021/10/21 04:26:49;;;;;;;27.20;14.02;;;10.70;73.80;;;10.16;60.13;93656.44;5035427;28;20222;-79
2021/10/21 04:29:16;;;;;;;32.17;13.43;;;10.70;73.80;;;10.16;60.06;93661.69;5034714;28;20219;-80
2021/10/21 04:31:43;;;;;;;56.58;15.05;;;10.70;73.80;;;10.14;59.94;93653.22;5035062;28;20236;-79
2021/10/21 04:34:12;;;;;;;29.40;14.45;;;10.60;73.80;;;10.12;60.17;93647.44;5035417;28;20200;-79
2021/10/21 04:36:40;;;;;;;26.33;14.43;;;10.60;73.80;;;10.09;59.97;93648.69;5051198;28;20236;-78
2021/10/21 04:39:08;;;;;;;42.15;14.70;;;10.70;73.80;;;10.07;59.86;93644.66;5032124;28;20221;-79
2021/10/21 04:41:35;;;;;;;20.88;13.85;;;10.60;73.80;;;9.98;60.16;93632.88;5015365;28;20307;-79
2021/10/21 04:44:02;;;;;;;44.33;13.90;;;10.60;73.70;;;10.00;60.09;93639.50;5031946;28;20232;-79
2021/10/21 04:46:30;;;;;;;34.22;14.13;;;10.60;73.80;;;9.98;60.01;93632.88;5014871;28;20232;-79
2021/10/21 04:48:57;;;;;;;20.40;13.35;;;10.60;73.80;;;9.92;59.98;93626.69;5028321;28;20208;-79
2021/10/21 04:51:25;;;;;;;16.15;13.20;;;10.50;73.80;;;9.93;59.90;93636.94;5031452;28;20722;-78
2021/10/21 04:53:52;;;;;;;20.98;14.23;;;10.50;73.80;;;9.88;60.07;93639.44;5031701;28;20200;-79
2021/10/21 04:56:20;;;;;;;17.75;13.63;;;10.50;73.80;;;9.85;60.16;93633.81;5050785;28;20291;-79
2021/10/21 04:58:47;;;;;;;16.50;13.25;;;10.40;73.70;;;9.81;60.24;93624.81;5035013;28;20215;-79
2021/10/21 05:01:14;;;;;;;16.88;13.50;;;10.40;73.80;;;9.78;60.56;93624.22;5034757;28;20226;-79
2021/10/21 05:03:41;;;;;;;17.13;14.02;;;10.30;73.70;;;9.73;60.18;93597.91;5034458;28;20552;-79
2021/10/21 05:06:09;;;;;;;16.80;13.82;;;10.30;73.90;;;9.73;60.43;93592.66;5017491;28;20231;-78
2021/10/21 05:08:36;;;;;;;19.60;14.63;;;10.30;74.00;;;9.72;60.51;93590.28;5034326;28;20200;-79
2021/10/21 05:11:04;;;;;;;17.70;14.73;;;10.30;74.10;;;9.73;60.61;93584.81;5030845;28;20232;-79
2021/10/21 05:13:32;;;;;;;19.02;15.18;;;10.30;74.40;;;9.72;60.61;93572.72;5047814;28;20195;-80
2021/10/21 05:15:59;;;;;;;18.40;14.63;;;10.30;74.60;;;9.78;60.67;93568.44;5050487;28;20222;-79
2021/10/21 05:18:27;;;;;;;18.48;15.10;;;10.30;74.80;;;9.85;60.79;93582.25;5026064;28;20210;-79
2021/10/21 05:20:54;;;;;;;19.38;13.88;;;10.30;74.80;;;9.92;60.95;93585.59;5030843;28;20184;-79
2021/10/21 05:23:22;;;;;;;19.30;14.73;;;10.30;74.80;;;10.00;60.99;93600.22;5047838;28;20197;-79
2021/10/21 05:25:50;;;;;;;21.13;14.57;;;10.30;74.80;;;10.08;61.02;93607.78;5033802;28;20250;-79
2021/10/21 05:28:17;;;;;;;18.95;14.57;;;10.40;74.90;;;10.15;60.89;93614.75;5050937;28;20669;-80
2021/10/21 05:30:49;;;;;;;19.10;15.13;;;10.40;74.90;;;10.21;60.83;93611.25;5052323;28;20272;-79
2021/10/21 05:33:16;;;;;;;18.50;14.52;;;10.60;75.00;;;10.22;60.60;93607.59;5035764;28;20194;-79
2021/10/21 05:35:43;;;;;;;17.25;14.05;;;10.60;75.00;;;10.29;60.63;93620.59;5040113;28;20221;-79
2021/10/21 05:38:10;;;;;;;19.25;14.48;;;10.60;75.00;;;10.32;60.67;93604.44;5041006;28;20555;-79
2021/10/21 05:40:37;;;;;;;16.02;13.85;;;10.60;75.00;;;10.36;60.73;93598.56;5024594;28;20251;-80
2021/10/21 05:43:04;;;;;;;18.42;14.23;;;10.70;75.00;;;10.40;60.66;93599.72;5024479;28;20199;-79
2021/10/21 05:45:31;;;;;;;16.88;14.65;;;10.70;75.00;;;10.43;60.93;93603.72;5040279;28;20206;-78
2021/10/21 05:47:59;;;;;;;18.35;14.95;;;10.70;75.10;;;10.51;60.82;93615.69;5057392;28;20578;-78
2021/10/21 05:50:26;;;;;;;17.52;14.52;;;10.80;75.10;;;10.54;60.95;93617.88;5056219;28;20242;-78
2021/10/21 05:52:53;;;;;;;19.40;14.98;;;10.80;75.20;;;10.66;61.20;93634.44;5040416;28;20215;-79
2021/10/21 05:55:21;;;;;;;20.70;17.05;;;10.90;75.40;;;10.77;61.68;93750.13;5040563;28;20267;-80
2021/10/21 05:57:48;;;;;;;19.88;16.73;;;10.90;75.60;;;10.84;62.25;93709.66;5040859;28;20246;-79
2021/10/21 06:00:15;;;;;;;20.77;15.68;;;11.00;76.10;;;10.99;62.88;93730.22;5040280;28;20282;-80
2021/10/21 06:02:42;;;;;;;22.35;16.92;;;11.10;76.60;;;11.15;64.30;93770.00;5040663;28;20691;-79
2021/10/21 06:05:09;;;;;;;19.80;15.50;;;11.20;77.30;;;11.36;64.28;93771.28;5040865;28;20203;-79
2021/10/21 06:07:37;;;;;;;18.42;14.73;;;11.40;77.60;;;11.57;63.77;93756.03;5040418;28;20681;-80
2021/10/21 06:10:04;;;;;;;16.17;11.25;;;11.60;77.90;;;11.78;63.02;93759.94;5058261;28;20188;-79
2021/10/21 06:12:32;;;;;;;16.90;13.02;;;11.60;77.90;;;11.95;62.85;93762.69;5024327;28;20216;-79
2021/10/21 06:15:03;;;;;;;15.98;12.05;;;11.80;77.80;;;12.11;62.94;93769.13;5024297;28;20629;-80
2021/10/21 06:17:31;;;;;;;15.32;11.68;;;12.00;77.80;;;12.26;62.61;93766.03;5041523;28;20218;-79
2021/10/21 06:19:58;;;;;;;13.18;10.95;;;12.20;77.90;;;12.40;62.73;93764.75;5040744;28;20213;-80
2021/10/21 06:22:25;;;;;;;11.75;10.35;;;12.30;77.80;;;12.55;62.41;93772.16;5056856;28;20310;-80
2021/10/21 06:24:54;;;;;;;13.00;11.05;;;12.40;77.70;;;12.67;62.36;93785.28;5040814;28;20744;-80
2021/10/21 06:27:21;;;;;;;11.93;9.80;;;12.60;77.60;;;12.79;62.32;93796.59;5057032;28;20655;-79
2021/10/21 06:29:48;;;;;;;12.68;9.20;;;12.70;77.50;;;12.87;61.91;93799.88;5040944;28;20201;-80
2021/10/21 06:32:17;;;;;;;11.60;9.45;;;12.80;77.40;;;12.95;62.22;93796.84;5040211;28;20238;-80
2021/10/21 06:34:44;;;;;;;10.07;8.57;;;12.90;77.40;;;13.05;62.35;93823.41;5040584;28;20615;-79
2021/10/21 06:37:11;;;;;;;11.35;9.02;;;13.00;77.20;;;13.16;62.36;93818.31;5040481;28;20301;-79
2021/10/21 06:39:38;;;;;;;13.52;8.90;;;13.10;77.40;;;13.26;62.47;93827.19;5057339;28;20183;-80
2021/10/21 06:42:05;;;;;;;9.25;8.30;;;13.30;77.40;;;13.42;62.08;93835.41;5056883;28;20276;-80
2021/10/21 06:44:32;;;;;;;11.23;8.07;;;13.40;77.30;;;13.54;62.35;93843.28;5056625;28;20192;-80
2021/10/21 06:47:01;;;;;;;9.73;7.28;;;13.40;77.10;;;13.64;61.96;93840.03;5037220;28;20318;-79
2021/10/21 06:49:30;;;;;;;8.98;7.13;;;13.60;77.20;;;13.76;61.78;93844.19;5021198;28;20194;-80
2021/10/21 06:51:57;;;;;;;9.10;7.93;;;13.70;77.20;;;13.85;61.52;93852.50;5053682;28;20227;-80
2021/10/21 06:54:24;;;;;;;9.73;8.18;;;13.80;77.30;;;13.95;61.44;93854.50;5054087;28;20282;-80
2021/10/21 06:56:51;;;;;;;9.70;7.95;;;13.90;77.40;;;14.02;61.42;93862.25;5020935;28;20689;-80
2021/10/21 06:59:18;;;;;;;11.65;8.45;;;14.10;77.50;;;14.07;61.14;93860.50;5036897;28;20199;-80
2021/10/21 07:01:45;;;;;;;8.57;7.40;;;14.10;77.20;;;14.11;61.29;93863.47;5053470;28;20323;-80
2021/10/21 07:04:13;;;;;;;11.77;8.52;;;14.10;76.90;;;14.13;61.14;93858.75;5037016;28;20195;-80
2021/10/21 07:06:40;;;;;;;10.93;7.60;;;14.20;76.70;;;14.19;60.97;93854.34;5020605;28;20223;-80
2021/10/21 07:09:07;;;;;;;9.10;7.70;;;14.20;76.60;;;14.21;61.17;93818.78;5037018;28;20191;-79
2021/10/21 07:11:34;;;;;;;8.35;7.28;;;14.20;76.50;;;14.28;61.11;93751.88;5036799;28;20339;-80
2021/10/21 07:14:01;;;;;;;9.90;7.95;;;14.40;76.60;;;14.29;61.20;93711.28;5053306;28;20567;-80
2021/10/21 07:16:30;;;;;;;9.60;8.13;;;14.40;76.60;;;14.40;61.07;93732.28;5036956;28;20250;-80
2021/10/21 07:18:57;;;;;;;9.75;7.97;;;14.40;76.60;;;14.45;60.90;93770.31;5036566;28;20191;-80
2021/10/21 07:21:25;;;;;;;10.52;7.70;;;14.50;76.60;;;14.50;60.98;93773.00;5020412;28;20223;-80
2021/10/21 07:23:52;;;;;;;10.70;8.85;;;14.50;76.50;;;14.55;61.12;93783.66;5053585;28;20203;-80
2021/10/21 07:26:20;;;;;;;12.50;9.40;;;14.60;76.60;;;14.61;60.72;93781.84;5053111;28;20231;-81
2021/10/21 07:28:47;;;;;;;11.10;8.43;;;14.60;76.60;;;14.66;60.78;93782.75;5036717;28;20219;-80
2021/10/21 07:31:16;;;;;;;11.98;8.55;;;14.70;76.60;;;14.75;60.86;93814.00;5036171;28;20235;-80
2021/10/21 07:33:44;;;;;;;9.82;8.80;;;14.80;76.60;;;14.77;60.64;93830.38;5053163;28;20253;-80
2021/10/21 07:36:11;;;;;;;11.40;8.10;;;14.80;76.40;;;14.80;60.48;93832.53;5052827;28;20259;-80
2021/10/21 07:38:39;;;;;;;10.75;8.05;;;14.80;76.40;;;14.77;60.87;93831.19;5036005;28;20650;-81
2021/10/21 07:41:06;;;;;;;9.90;7.95;;;14.90;76.30;;;14.77;60.54;93847.03;5036397;28;20219;-80
2021/10/21 07:43:36;;;;;;;8.68;7.60;;;14.90;76.10;;;14.81;60.70;93861.34;5052488;28;20646;-81
2021/10/21 07:46:04;;;;;;;10.57;7.35;;;14.90;76.00;;;14.83;60.89;93884.84;5036146;28;20239;-80
2021/10/21 07:48:32;;;;;;;11.05;8.05;;;15.00;76.00;;;14.78;60.54;93896.16;5052694;28;20568;-80
2021/10/21 07:50:59;;;;;;;9.70;7.53;;;14.90;75.90;;;14.80;60.83;93895.91;5036175;28;20626;-80
2021/10/21 07:53:31;;;;;;;9.18;7.25;;;15.00;75.90;;;14.83;60.83;93892.75;5053165;28;20192;-81
2021/10/21 07:56:01;;;;;;;8.45;7.43;;;15.00;76.00;;;14.86;60.26;93885.16;5052478;28;20607;-81
2021/10/21 07:58:28;;;;;;;7.38;6.38;;;15.00;76.00;;;14.94;60.91;93886.59;5036022;28;20222;-80
2021/10/21 08:00:55;;;;;;;8.35;6.10;;;15.00;76.10;;;15.03;60.53;93892.25;5052679;28;20203;-80
2021/10/21 08:03:23;;;;;;;9.00;6.40;;;15.10;76.20;;;15.12;60.52;93889.97;5052627;28;20314;-80
2021/10/21 08:05:50;;;;;;;7.90;6.20;;;15.10;76.40;;;15.26;60.52;93893.84;5035689;28;20268;-80
2021/10/21 08:08:17;;;;;;;7.75;6.32;;;15.20;76.40;;;15.39;60.60;93892.66;5035771;28;20234;-81
2021/10/21 08:10:44;;;;;;;6.90;6.10;;;15.30;76.60;;;15.49;60.53;93882.22;5035422;28;20298;-80
2021/10/21 08:13:14;;;;;;;7.45;5.97;;;15.30;76.50;;;15.60;60.64;93874.38;5018919;28;20561;-80
2021/10/21 08:15:46;;;;;;;6.57;5.68;;;15.40;76.40;;;15.69;60.26;93878.19;5034681;28;20337;-80
2021/10/21 08:18:14;;;;;;;6.68;5.43;;;15.50;76.40;;;15.82;60.53;93896.34;5035273;28;20238;-79
2021/10/21 08:20:44;;;;;;;5.50;5.00;;;15.60;76.40;;;15.95;60.29;93910.19;5035472;28;20294;-79
2021/10/21 08:23:12;;;;;;;6.40;5.32;;;15.70;76.40;;;16.08;59.91;93919.59;5051785;28;20599;-80
2021/10/21 08:25:40;;;;;;;6.05;5.38;;;15.80;76.40;;;16.19;59.76;93918.63;5031845;28;20212;-80
2021/10/21 08:28:08;;;;;;;5.28;4.78;;;16.00;76.40;;;16.29;59.97;93928.50;5015562;28;20294;-80
2021/10/21 08:30:38;;;;;;;6.50;4.93;;;16.00;76.20;;;16.34;59.99;93933.81;5048496;28;20242;-80
2021/10/21 08:33:06;;;;;;;5.28;4.78;;;16.10;76.00;;;16.38;59.24;93942.06;5015763;28;20224;-80
2021/10/21 08:35:36;;;;;;;4.90;4.32;;;16.30;75.80;;;16.36;59.46;93947.59;5031235;28;20284;-80
2021/10/21 08:38:03;;;;;;;6.30;4.47;;;16.30;75.50;;;16.40;59.20;93945.25;5051460;28;20211;-80
2021/10/21 08:40:33;;;;;;;6.88;4.40;;;16.30;75.50;;;16.51;59.19;93943.50;5051702;28;20308;-80
2021/10/21 08:43:04;;;;;;;5.72;4.72;;;16.40;75.40;;;16.54;59.06;93917.31;5018730;28;20695;-81
2021/10/21 08:45:34;;;;;;;5.85;4.88;;;16.50;75.40;;;16.69;58.29;93964.28;5035291;28;20203;-80
2021/10/21 08:48:05;;;;;;;5.40;4.30;;;16.60;75.00;;;16.77;58.33;93963.81;5051882;28;20234;-79
2021/10/21 08:50:34;;;;;;;5.50;3.80;;;16.70;74.90;;;16.85;58.25;93967.84;5034217;28;20226;-80
2021/10/21 08:53:03;;;;;;;5.32;4.28;;;16.70;74.80;;;16.91;57.77;93972.13;5034872;28;20227;-80
2021/10/21 08:55:31;;;;;;;4.28;3.80;;;16.80;74.70;;;16.98;57.79;93973.78;5035000;28;20234;-80
2021/10/21 08:57:59;;;;;;;5.03;3.67;;;16.90;74.40;;;16.99;56.21;93948.88;5051130;28;20602;-81
2021/10/21 09:00:27;;;;;;;4.05;2.85;;;16.90;73.40;;;17.05;52.88;93950.50;5035282;28;20211;-81
2021/10/21 09:02:56;;;;;;;29.75;3.38;;;17.10;71.40;;;17.05;51.26;93959.28;5028356;28;20589;-80
2021/10/21 09:08:06;;;;;;;2.72;2.00;;;17.10;70.30;;;17.26;50.87;93980.59;5067028;28;20231;-81
2021/10/21 09:10:45;;;;;;;2.20;2.00;;;17.20;69.50;;;17.30;51.56;93955.16;5032032;28;20597;-80
2021/10/21 09:13:23;;;;;;;2.20;2.00;;;17.20;69.70;;;17.37;50.75;93963.69;5047915;28;20203;-80
2021/10/21 09:15:56;;;;;;;2.00;1.77;;;17.30;69.30;;;17.40;49.32;93951.75;5046102;28;20196;-79
2021/10/21 09:18:27;;;;;;;3.42;2.45;;;17.30;68.30;;;17.44;48.38;93943.03;5046004;28;20661;-79
2021/10/21 09:20:55;;;;;;;3.35;1.77;;;17.40;67.30;;;17.50;46.66;93946.50;5051534;28;20206;-79
2021/10/21 09:23:28;;;;;;;4.20;1.50;;;17.40;66.70;;;17.62;46.59;93935.69;5049930;28;20286;-80
2021/10/21 09:26:09;;;;;;;2.83;1.70;;;17.50;65.80;;;17.72;47.08;93943.69;5033579;28;20207;-79
2021/10/21 09:28:37;;;;;;;1.48;1.38;;;17.60;66.60;;;17.80;45.75;93934.41;5028989;28;20215;-79
2021/10/21 09:31:08;;;;;;;2.17;1.50;;;17.60;65.50;;;17.91;47.08;93951.16;5063978;28;20215;-79
2021/10/21 09:33:51;;;;;;;2.78;1.60;;;17.70;65.80;;;17.93;45.97;93939.22;5047239;28;20669;-80
2021/10/21 09:36:26;;;;;;;3.72;1.40;;;17.80;65.30;;;17.97;42.25;93997.91;5056996;28;20295;-81
2021/10/21 09:38:58;;;;;;;3.95;1.30;;;17.90;63.40;;;17.96;42.25;93964.47;5048132;28;20609;-80
2021/10/21 09:41:30;;;;;;;2.10;1.20;;;17.90;62.10;;;18.02;42.84;93946.72;5051054;28;20219;-79
2021/10/21 09:43:58;;;;;;;5.35;1.30;;;18.00;62.90;;;18.08;43.27;93970.31;5049517;28;20257;-79
2021/10/21 09:46:42;;;;;;;1.48;1.20;;;17.90;63.00;;;18.18;43.63;93956.28;5050605;28;20205;-79
2021/10/21 09:49:36;;;;;;;2.78;1.27;;;18.00;63.90;;;18.33;44.07;93962.69;5050326;28;20223;-80
2021/10/21 09:52:19;;;;;;;4.57;1.42;;;18.10;63.70;;;18.45;42.97;93978.34;5048807;28;20230;-79
2021/10/21 09:54:50;;;;;;;2.55;1.10;;;18.20;62.50;;;18.48;41.89;93962.69;5032316;28;20211;-80
2021/10/21 09:57:30;;;;;;;2.55;1.20;;;18.30;61.80;;;18.46;39.20;93980.75;5031225;28;20239;-81
2021/10/21 10:00:08;;;;;;;1.50;1.30;;;18.30;60.70;;;18.39;38.67;93988.16;5047539;28;20661;-80
2021/10/21 10:02:39;;;;;;;3.60;1.35;;;18.30;60.30;;;18.33;40.50;93995.31;5032152;28;20216;-81
2021/10/21 10:05:07;;;;;;;1.33;1.10;;;18.50;60.80;;;18.32;40.95;94007.03;5032663;28;20200;-80
2021/10/21 10:07:35;;;;;;;7.80;1.08;;;18.30;61.10;;;18.31;40.42;94001.94;5049730;28;20219;-81
2021/10/21 10:10:04;;;;;;;1.67;1.08;;;18.40;60.60;;;18.26;39.26;94010.72;5032996;28;20198;-81
2021/10/21 10:12:35;;;;;;;2.05;1.13;;;18.30;59.50;;;18.19;40.97;93986.28;5030308;28;20277;-80
2021/10/21 10:15:03;;;;;;;2.20;0.90;;;18.30;60.20;;;18.17;41.74;93999.78;5033299;28;20210;-81
2021/10/21 10:17:31;;;;;;;1.30;1.10;;;18.30;61.10;;;18.15;40.97;94001.13;5029228;28;20215;-80
2021/10/21 10:19:58;;;;;;;1.88;1.00;;;18.20;60.50;;;18.13;40.43;93997.94;5024407;28;20287;-81
2021/10/21 10:22:32;;;;;;;1.52;1.27;;;18.20;60.30;;;18.11;40.34;93995.53;5019074;28;20211;-80